sensor_id;sensor_type;location;lat;lon;timestamp;P1;durP1;ratioP1;P2;durP2;ratioP2
146;SDS011;45999;48.808;9.182;2023-07-24T00:02:20;9.27;;;8.20;;
146;SDS011;45999;48.808;9.182;2023-07-24T00:04:47;10.73;;;8.00;;
146;SDS011;45999;48.808;9.182;2023-07-24T00:07:13;9.27;;;8.37;;
146;SDS011;45999;48.808;9.182;2023-07-24T00:09:40;8.43;;;7.60;;
146;SDS011;45999;48.808;9.182;2023-07-24T00:12:06;8.70;;;7.80;;
146;SDS011;45999;48.808;9.182;2023-07-24T00:14:33;9.87;;;8.33;;
146;SDS011;45999;48.808;9.182;2023-07-24T00:16:59;9.63;;;7.97;;
146;SDS011;45999;48.808;9.182;2023-07-24T00:19:26;9.53;;;7.90;;
146;SDS011;45999;48.808;9.182;2023-07-24T00:21:52;11.47;;;8.47;;
146;SDS011;45999;48.808;9.182;2023-07-24T00:24:18;10.53;;;8.47;;
146;SDS011;45999;48.808;9.182;2023-07-24T00:26:45;12.00;;;8.70;;
146;SDS011;45999;48.808;9.182;2023-07-24T00:29:11;9.33;;;7.77;;
146;SDS011;45999;48.808;9.182;2023-07-24T00:31:38;10.33;;;8.87;;
146;SDS011;45999;48.808;9.182;2023-07-24T00:34:04;9.10;;;8.20;;
146;SDS011;45999;48.808;9.182;2023-07-24T00:36:30;10.07;;;8.20;;
146;SDS011;45999;48.808;9.182;2023-07-24T00:38:57;9.67;;;7.93;;
146;SDS011;45999;48.808;9.182;2023-07-24T00:41:23;10.63;;;8.57;;
146;SDS011;45999;48.808;9.182;2023-07-24T00:43:49;12.17;;;8.60;;
146;SDS011;45999;48.808;9.182;2023-07-24T00:46:16;10.93;;;8.13;;
146;SDS011;45999;48.808;9.182;2023-07-24T00:48:42;9.27;;;8.20;;
146;SDS011;45999;48.808;9.182;2023-07-24T00:51:09;9.77;;;8.47;;
146;SDS011;45999;48.808;9.182;2023-07-24T00:53:36;11.43;;;8.70;;
146;SDS011;45999;48.808;9.182;2023-07-24T00:56:02;9.20;;;8.20;;
146;SDS011;45999;48.808;9.182;2023-07-24T00:58:30;11.73;;;8.57;;
146;SDS011;45999;48.808;9.182;2023-07-24T01:00:57;9.83;;;8.37;;
146;SDS011;45999;48.808;9.182;2023-07-24T01:03:25;9.57;;;7.73;;
146;SDS011;45999;48.808;9.182;2023-07-24T01:05:57;8.97;;;8.07;;
146;SDS011;45999;48.808;9.182;2023-07-24T01:08:23;9.90;;;8.20;;
146;SDS011;45999;48.808;9.182;2023-07-24T01:10:50;8.13;;;7.33;;
146;SDS011;45999;48.808;9.182;2023-07-24T01:13:18;9.17;;;8.10;;
146;SDS011;45999;48.808;9.182;2023-07-24T01:15:48;9.57;;;8.17;;
146;SDS011;45999;48.808;9.182;2023-07-24T01:18:22;8.57;;;7.67;;
146;SDS011;45999;48.808;9.182;2023-07-24T01:20:51;10.40;;;8.37;;
146;SDS011;45999;48.808;9.182;2023-07-24T01:23:37;9.57;;;8.47;;
146;SDS011;45999;48.808;9.182;2023-07-24T01:26:11;8.80;;;7.90;;
146;SDS011;45999;48.808;9.182;2023-07-24T01:28:38;10.27;;;8.27;;
146;SDS011;45999;48.808;9.182;2023-07-24T01:31:04;9.23;;;8.23;;
146;SDS011;45999;48.808;9.182;2023-07-24T01:33:31;8.93;;;8.03;;
146;SDS011;45999;48.808;9.182;2023-07-24T01:36:00;11.33;;;8.77;;
146;SDS011;45999;48.808;9.182;2023-07-24T01:38:28;8.83;;;7.87;;
146;SDS011;45999;48.808;9.182;2023-07-24T01:40:57;10.00;;;7.77;;
146;SDS011;45999;48.808;9.182;2023-07-24T01:43:25;8.83;;;7.97;;
146;SDS011;45999;48.808;9.182;2023-07-24T01:45:53;9.63;;;8.30;;
146;SDS011;45999;48.808;9.182;2023-07-24T01:48:19;9.23;;;8.23;;
146;SDS011;45999;48.808;9.182;2023-07-24T01:50:46;10.03;;;8.23;;
146;SDS011;45999;48.808;9.182;2023-07-24T01:53:12;9.10;;;8.17;;
146;SDS011;45999;48.808;9.182;2023-07-24T01:55:39;8.57;;;7.60;;
146;SDS011;45999;48.808;9.182;2023-07-24T01:58:05;10.97;;;8.43;;
146;SDS011;45999;48.808;9.182;2023-07-24T02:00:31;9.43;;;8.17;;
146;SDS011;45999;48.808;9.182;2023-07-24T02:02:58;9.67;;;8.57;;
146;SDS011;45999;48.808;9.182;2023-07-24T02:05:25;11.73;;;8.30;;
146;SDS011;45999;48.808;9.182;2023-07-24T02:07:52;8.77;;;7.87;;
146;SDS011;45999;48.808;9.182;2023-07-24T02:10:18;8.37;;;7.57;;
146;SDS011;45999;48.808;9.182;2023-07-24T02:12:44;8.93;;;7.70;;
146;SDS011;45999;48.808;9.182;2023-07-24T02:15:11;9.63;;;7.93;;
146;SDS011;45999;48.808;9.182;2023-07-24T02:17:37;9.47;;;7.90;;
146;SDS011;45999;48.808;9.182;2023-07-24T02:20:04;8.93;;;8.10;;
146;SDS011;45999;48.808;9.182;2023-07-24T02:22:30;8.77;;;7.87;;
146;SDS011;45999;48.808;9.182;2023-07-24T02:24:57;9.10;;;8.20;;
146;SDS011;45999;48.808;9.182;2023-07-24T02:27:27;10.27;;;8.00;;
146;SDS011;45999;48.808;9.182;2023-07-24T02:29:59;9.53;;;7.53;;
146;SDS011;45999;48.808;9.182;2023-07-24T02:32:26;9.80;;;7.87;;
146;SDS011;45999;48.808;9.182;2023-07-24T02:34:53;8.33;;;7.47;;
146;SDS011;45999;48.808;9.182;2023-07-24T02:37:19;8.87;;;7.30;;
146;SDS011;45999;48.808;9.182;2023-07-24T02:39:46;9.23;;;7.77;;
146;SDS011;45999;48.808;9.182;2023-07-24T02:42:12;10.13;;;8.00;;
146;SDS011;45999;48.808;9.182;2023-07-24T02:44:39;8.17;;;7.37;;
146;SDS011;45999;48.808;9.182;2023-07-24T02:47:05;9.90;;;7.70;;
146;SDS011;45999;48.808;9.182;2023-07-24T02:49:32;9.63;;;7.30;;
146;SDS011;45999;48.808;9.182;2023-07-24T02:51:59;8.00;;;7.10;;
146;SDS011;45999;48.808;9.182;2023-07-24T02:54:26;8.80;;;7.80;;
146;SDS011;45999;48.808;9.182;2023-07-24T02:56:52;8.63;;;7.60;;
146;SDS011;45999;48.808;9.182;2023-07-24T02:59:19;8.30;;;7.50;;
146;SDS011;45999;48.808;9.182;2023-07-24T03:01:45;10.83;;;8.03;;
146;SDS011;45999;48.808;9.182;2023-07-24T03:04:11;8.83;;;7.93;;
146;SDS011;45999;48.808;9.182;2023-07-24T03:06:39;11.30;;;8.13;;
146;SDS011;45999;48.808;9.182;2023-07-24T03:09:06;8.70;;;7.80;;
146;SDS011;45999;48.808;9.182;2023-07-24T03:11:32;8.77;;;7.47;;
146;SDS011;45999;48.808;9.182;2023-07-24T03:13:59;8.80;;;7.87;;
146;SDS011;45999;48.808;9.182;2023-07-24T03:16:25;9.20;;;7.77;;
146;SDS011;45999;48.808;9.182;2023-07-24T03:18:51;8.47;;;7.50;;
146;SDS011;45999;48.808;9.182;2023-07-24T03:21:18;9.17;;;7.53;;
146;SDS011;45999;48.808;9.182;2023-07-24T03:23:45;8.60;;;7.07;;
146;SDS011;45999;48.808;9.182;2023-07-24T03:26:12;8.00;;;7.10;;
146;SDS011;45999;48.808;9.182;2023-07-24T03:28:38;8.57;;;7.33;;
146;SDS011;45999;48.808;9.182;2023-07-24T03:31:04;8.17;;;7.37;;
146;SDS011;45999;48.808;9.182;2023-07-24T03:33:31;9.13;;;7.33;;
146;SDS011;45999;48.808;9.182;2023-07-24T03:35:57;8.87;;;7.13;;
146;SDS011;45999;48.808;9.182;2023-07-24T03:38:23;8.10;;;6.60;;
146;SDS011;45999;48.808;9.182;2023-07-24T03:40:50;8.90;;;7.50;;
146;SDS011;45999;48.808;9.182;2023-07-24T03:43:16;10.00;;;7.67;;
146;SDS011;45999;48.808;9.182;2023-07-24T03:45:42;9.77;;;7.60;;
146;SDS011;45999;48.808;9.182;2023-07-24T03:48:09;9.03;;;7.50;;
146;SDS011;45999;48.808;9.182;2023-07-24T03:50:36;9.03;;;7.80;;
146;SDS011;45999;48.808;9.182;2023-07-24T03:53:02;8.87;;;7.97;;
146;SDS011;45999;48.808;9.182;2023-07-24T03:55:28;9.93;;;8.07;;
146;SDS011;45999;48.808;9.182;2023-07-24T03:57:55;11.33;;;7.87;;
146;SDS011;45999;48.808;9.182;2023-07-24T04:00:21;8.20;;;7.40;;
146;SDS011;45999;48.808;9.182;2023-07-24T04:02:47;8.30;;;6.93;;
146;SDS011;45999;48.808;9.182;2023-07-24T04:05:14;11.07;;;8.03;;
146;SDS011;45999;48.808;9.182;2023-07-24T04:07:40;8.70;;;7.53;;
146;SDS011;45999;48.808;9.182;2023-07-24T04:10:07;9.00;;;8.10;;
146;SDS011;45999;48.808;9.182;2023-07-24T04:12:33;8.30;;;7.50;;
146;SDS011;45999;48.808;9.182;2023-07-24T04:15:00;9.70;;;7.67;;
146;SDS011;45999;48.808;9.182;2023-07-24T04:17:27;9.10;;;8.03;;
146;SDS011;45999;48.808;9.182;2023-07-24T04:19:53;8.53;;;7.60;;
146;SDS011;45999;48.808;9.182;2023-07-24T04:22:20;9.47;;;7.90;;
146;SDS011;45999;48.808;9.182;2023-07-24T04:24:46;9.53;;;7.77;;
146;SDS011;45999;48.808;9.182;2023-07-24T04:27:13;10.27;;;8.40;;
146;SDS011;45999;48.808;9.182;2023-07-24T04:29:40;10.07;;;8.47;;
146;SDS011;45999;48.808;9.182;2023-07-24T04:32:06;9.63;;;7.70;;
146;SDS011;45999;48.808;9.182;2023-07-24T04:34:38;10.13;;;8.00;;
146;SDS011;45999;48.808;9.182;2023-07-24T04:37:04;12.37;;;8.27;;
146;SDS011;45999;48.808;9.182;2023-07-24T04:39:31;24.10;;;20.10;;
146;SDS011;45999;48.808;9.182;2023-07-24T04:41:58;13.17;;;11.57;;
146;SDS011;45999;48.808;9.182;2023-07-24T04:44:25;9.97;;;8.60;;
146;SDS011;45999;48.808;9.182;2023-07-24T04:46:51;11.17;;;8.43;;
146;SDS011;45999;48.808;9.182;2023-07-24T04:49:17;12.63;;;8.83;;
146;SDS011;45999;48.808;9.182;2023-07-24T04:51:47;13.43;;;9.07;;
146;SDS011;45999;48.808;9.182;2023-07-24T04:54:14;10.30;;;8.60;;
146;SDS011;45999;48.808;9.182;2023-07-24T04:56:40;11.47;;;9.53;;
146;SDS011;45999;48.808;9.182;2023-07-24T04:59:07;9.60;;;8.57;;
146;SDS011;45999;48.808;9.182;2023-07-24T05:01:33;10.70;;;9.33;;
146;SDS011;45999;48.808;9.182;2023-07-24T05:03:59;11.97;;;9.30;;
146;SDS011;45999;48.808;9.182;2023-07-24T05:06:26;10.67;;;8.83;;
146;SDS011;45999;48.808;9.182;2023-07-24T05:08:53;10.63;;;9.50;;
146;SDS011;45999;48.808;9.182;2023-07-24T05:11:19;19.87;;;16.40;;
146;SDS011;45999;48.808;9.182;2023-07-24T05:13:45;14.43;;;12.17;;
146;SDS011;45999;48.808;9.182;2023-07-24T05:16:12;11.30;;;9.03;;
146;SDS011;45999;48.808;9.182;2023-07-24T05:18:38;10.60;;;9.37;;
146;SDS011;45999;48.808;9.182;2023-07-24T05:21:05;11.57;;;9.67;;
146;SDS011;45999;48.808;9.182;2023-07-24T05:23:31;12.23;;;9.70;;
146;SDS011;45999;48.808;9.182;2023-07-24T05:26:01;13.03;;;8.83;;
146;SDS011;45999;48.808;9.182;2023-07-24T05:28:28;13.00;;;8.40;;
146;SDS011;45999;48.808;9.182;2023-07-24T05:30:56;14.17;;;8.90;;
146;SDS011;45999;48.808;9.182;2023-07-24T05:33:26;13.10;;;8.97;;
146;SDS011;45999;48.808;9.182;2023-07-24T05:35:56;11.57;;;9.73;;
146;SDS011;45999;48.808;9.182;2023-07-24T05:38:26;11.40;;;8.73;;
146;SDS011;45999;48.808;9.182;2023-07-24T05:40:54;10.17;;;8.07;;
146;SDS011;45999;48.808;9.182;2023-07-24T05:43:21;11.07;;;8.90;;
146;SDS011;45999;48.808;9.182;2023-07-24T05:45:47;12.10;;;9.20;;
146;SDS011;45999;48.808;9.182;2023-07-24T05:48:14;19.37;;;9.37;;
146;SDS011;45999;48.808;9.182;2023-07-24T05:50:40;10.67;;;9.00;;
146;SDS011;45999;48.808;9.182;2023-07-24T05:53:07;11.33;;;9.33;;
146;SDS011;45999;48.808;9.182;2023-07-24T05:55:33;12.83;;;9.23;;
146;SDS011;45999;48.808;9.182;2023-07-24T05:57:59;16.47;;;8.93;;
146;SDS011;45999;48.808;9.182;2023-07-24T06:00:26;10.50;;;8.40;;
146;SDS011;45999;48.808;9.182;2023-07-24T06:02:52;10.37;;;8.33;;
146;SDS011;45999;48.808;9.182;2023-07-24T06:05:19;10.70;;;8.20;;
146;SDS011;45999;48.808;9.182;2023-07-24T06:07:46;10.67;;;8.40;;
146;SDS011;45999;48.808;9.182;2023-07-24T06:10:13;12.93;;;8.23;;
146;SDS011;45999;48.808;9.182;2023-07-24T06:12:40;13.23;;;9.10;;
146;SDS011;45999;48.808;9.182;2023-07-24T06:15:06;9.60;;;8.60;;
146;SDS011;45999;48.808;9.182;2023-07-24T06:17:33;10.87;;;8.53;;
146;SDS011;45999;48.808;9.182;2023-07-24T06:19:59;12.67;;;9.17;;
146;SDS011;45999;48.808;9.182;2023-07-24T06:22:26;11.43;;;9.13;;
146;SDS011;45999;48.808;9.182;2023-07-24T06:24:52;13.30;;;8.87;;
146;SDS011;45999;48.808;9.182;2023-07-24T06:27:18;11.03;;;8.30;;
146;SDS011;45999;48.808;9.182;2023-07-24T06:29:45;12.17;;;8.67;;
146;SDS011;45999;48.808;9.182;2023-07-24T06:32:11;10.70;;;8.13;;
146;SDS011;45999;48.808;9.182;2023-07-24T06:34:39;11.00;;;8.33;;
146;SDS011;45999;48.808;9.182;2023-07-24T06:37:05;9.43;;;7.80;;
146;SDS011;45999;48.808;9.182;2023-07-24T06:39:31;9.27;;;7.97;;
146;SDS011;45999;48.808;9.182;2023-07-24T06:41:58;13.10;;;8.77;;
146;SDS011;45999;48.808;9.182;2023-07-24T06:44:25;10.90;;;8.67;;
146;SDS011;45999;48.808;9.182;2023-07-24T06:46:51;11.40;;;8.70;;
146;SDS011;45999;48.808;9.182;2023-07-24T06:49:18;11.70;;;8.17;;
146;SDS011;45999;48.808;9.182;2023-07-24T06:51:44;11.80;;;7.57;;
146;SDS011;45999;48.808;9.182;2023-07-24T06:54:10;9.97;;;8.30;;
146;SDS011;45999;48.808;9.182;2023-07-24T06:56:37;10.13;;;8.70;;
146;SDS011;45999;48.808;9.182;2023-07-24T06:59:03;10.90;;;8.00;;
146;SDS011;45999;48.808;9.182;2023-07-24T07:01:29;9.63;;;8.07;;
146;SDS011;45999;48.808;9.182;2023-07-24T07:03:56;10.60;;;7.73;;
146;SDS011;45999;48.808;9.182;2023-07-24T07:06:22;9.57;;;8.53;;
146;SDS011;45999;48.808;9.182;2023-07-24T07:08:48;10.00;;;8.70;;
146;SDS011;45999;48.808;9.182;2023-07-24T07:11:15;9.77;;;8.77;;
146;SDS011;45999;48.808;9.182;2023-07-24T07:13:41;9.73;;;8.70;;
146;SDS011;45999;48.808;9.182;2023-07-24T07:16:07;11.90;;;8.90;;
146;SDS011;45999;48.808;9.182;2023-07-24T07:18:34;9.50;;;8.20;;
146;SDS011;45999;48.808;9.182;2023-07-24T07:21:00;9.73;;;8.27;;
146;SDS011;45999;48.808;9.182;2023-07-24T07:23:27;9.63;;;8.00;;
146;SDS011;45999;48.808;9.182;2023-07-24T07:25:53;12.53;;;8.33;;
146;SDS011;45999;48.808;9.182;2023-07-24T07:28:19;10.23;;;8.83;;
146;SDS011;45999;48.808;9.182;2023-07-24T07:30:46;13.30;;;8.40;;
146;SDS011;45999;48.808;9.182;2023-07-24T07:33:13;9.80;;;8.40;;
146;SDS011;45999;48.808;9.182;2023-07-24T07:35:39;9.77;;;7.70;;
146;SDS011;45999;48.808;9.182;2023-07-24T07:38:06;9.27;;;8.33;;
146;SDS011;45999;48.808;9.182;2023-07-24T07:40:32;10.47;;;8.30;;
146;SDS011;45999;48.808;9.182;2023-07-24T07:42:58;13.00;;;8.30;;
146;SDS011;45999;48.808;9.182;2023-07-24T07:45:25;9.40;;;7.90;;
146;SDS011;45999;48.808;9.182;2023-07-24T07:47:51;9.63;;;8.10;;
146;SDS011;45999;48.808;9.182;2023-07-24T07:50:18;11.10;;;8.47;;
146;SDS011;45999;48.808;9.182;2023-07-24T07:52:45;9.57;;;8.00;;
146;SDS011;45999;48.808;9.182;2023-07-24T07:55:11;9.30;;;8.40;;
146;SDS011;45999;48.808;9.182;2023-07-24T07:57:38;9.57;;;7.90;;
146;SDS011;45999;48.808;9.182;2023-07-24T08:00:05;9.70;;;7.80;;
146;SDS011;45999;48.808;9.182;2023-07-24T08:02:32;9.60;;;8.43;;
146;SDS011;45999;48.808;9.182;2023-07-24T08:04:59;14.00;;;9.57;;
146;SDS011;45999;48.808;9.182;2023-07-24T08:07:25;10.87;;;9.73;;
146;SDS011;45999;48.808;9.182;2023-07-24T08:09:52;11.47;;;8.47;;
146;SDS011;45999;48.808;9.182;2023-07-24T08:12:18;10.63;;;8.13;;
146;SDS011;45999;48.808;9.182;2023-07-24T08:14:44;10.03;;;8.13;;
146;SDS011;45999;48.808;9.182;2023-07-24T08:17:11;11.33;;;7.97;;
146;SDS011;45999;48.808;9.182;2023-07-24T08:19:37;9.23;;;8.10;;
146;SDS011;45999;48.808;9.182;2023-07-24T08:22:03;9.43;;;7.97;;
146;SDS011;45999;48.808;9.182;2023-07-24T08:24:33;10.17;;;8.20;;
146;SDS011;45999;48.808;9.182;2023-07-24T08:27:01;13.57;;;8.73;;
146;SDS011;45999;48.808;9.182;2023-07-24T08:29:27;11.73;;;8.60;;
146;SDS011;45999;48.808;9.182;2023-07-24T08:31:54;9.77;;;7.97;;
146;SDS011;45999;48.808;9.182;2023-07-24T08:34:20;13.40;;;9.27;;
146;SDS011;45999;48.808;9.182;2023-07-24T08:36:47;11.73;;;8.80;;
146;SDS011;45999;48.808;9.182;2023-07-24T08:39:13;12.07;;;9.20;;
146;SDS011;45999;48.808;9.182;2023-07-24T08:41:39;13.00;;;9.27;;
146;SDS011;45999;48.808;9.182;2023-07-24T08:44:07;12.87;;;9.63;;
146;SDS011;45999;48.808;9.182;2023-07-24T08:46:35;12.70;;;9.53;;
146;SDS011;45999;48.808;9.182;2023-07-24T08:49:03;12.23;;;9.53;;
146;SDS011;45999;48.808;9.182;2023-07-24T08:51:30;9.97;;;8.97;;
146;SDS011;45999;48.808;9.182;2023-07-24T08:53:57;12.63;;;10.17;;
146;SDS011;45999;48.808;9.182;2023-07-24T08:56:27;13.20;;;9.70;;
146;SDS011;45999;48.808;9.182;2023-07-24T08:58:54;10.47;;;8.77;;
146;SDS011;45999;48.808;9.182;2023-07-24T09:01:20;13.30;;;9.43;;
146;SDS011;45999;48.808;9.182;2023-07-24T09:03:47;13.10;;;9.50;;
146;SDS011;45999;48.808;9.182;2023-07-24T09:06:14;12.57;;;9.43;;
146;SDS011;45999;48.808;9.182;2023-07-24T09:08:42;11.50;;;10.13;;
146;SDS011;45999;48.808;9.182;2023-07-24T09:11:10;10.47;;;8.73;;
146;SDS011;45999;48.808;9.182;2023-07-24T09:13:37;11.00;;;8.10;;
146;SDS011;45999;48.808;9.182;2023-07-24T09:16:07;9.07;;;7.20;;
146;SDS011;45999;48.808;9.182;2023-07-24T09:18:43;7.90;;;7.10;;
146;SDS011;45999;48.808;9.182;2023-07-24T09:21:10;8.57;;;7.43;;
146;SDS011;45999;48.808;9.182;2023-07-24T09:23:41;8.60;;;7.47;;
146;SDS011;45999;48.808;9.182;2023-07-24T09:26:08;9.13;;;6.73;;
146;SDS011;45999;48.808;9.182;2023-07-24T09:28:35;7.77;;;7.03;;
146;SDS011;45999;48.808;9.182;2023-07-24T09:31:01;8.17;;;7.10;;
146;SDS011;45999;48.808;9.182;2023-07-24T09:33:36;8.63;;;7.17;;
146;SDS011;45999;48.808;9.182;2023-07-24T09:36:04;9.07;;;7.67;;
146;SDS011;45999;48.808;9.182;2023-07-24T09:38:32;8.43;;;6.90;;
146;SDS011;45999;48.808;9.182;2023-07-24T09:41:00;9.33;;;8.33;;
146;SDS011;45999;48.808;9.182;2023-07-24T09:43:27;7.90;;;7.07;;
146;SDS011;45999;48.808;9.182;2023-07-24T09:45:55;9.00;;;7.77;;
146;SDS011;45999;48.808;9.182;2023-07-24T09:48:23;9.03;;;7.23;;
146;SDS011;45999;48.808;9.182;2023-07-24T09:50:55;12.07;;;7.00;;
146;SDS011;45999;48.808;9.182;2023-07-24T09:56:05;9.27;;;6.87;;
146;SDS011;45999;48.808;9.182;2023-07-24T09:58:34;9.03;;;6.83;;
146;SDS011;45999;48.808;9.182;2023-07-24T10:01:03;10.17;;;6.93;;
146;SDS011;45999;48.808;9.182;2023-07-24T10:03:38;9.30;;;6.87;;
146;SDS011;45999;48.808;9.182;2023-07-24T10:06:15;7.73;;;6.50;;
146;SDS011;45999;48.808;9.182;2023-07-24T10:08:43;10.30;;;6.90;;
146;SDS011;45999;48.808;9.182;2023-07-24T10:11:11;8.63;;;6.70;;
146;SDS011;45999;48.808;9.182;2023-07-24T10:13:38;8.23;;;6.77;;
146;SDS011;45999;48.808;9.182;2023-07-24T10:16:08;8.43;;;6.67;;
146;SDS011;45999;48.808;9.182;2023-07-24T10:18:41;7.17;;;6.43;;
146;SDS011;45999;48.808;9.182;2023-07-24T10:21:09;7.80;;;6.30;;
146;SDS011;45999;48.808;9.182;2023-07-24T10:23:37;7.80;;;6.00;;
146;SDS011;45999;48.808;9.182;2023-07-24T10:26:08;7.60;;;6.17;;
146;SDS011;45999;48.808;9.182;2023-07-24T10:28:38;9.00;;;6.23;;
146;SDS011;45999;48.808;9.182;2023-07-24T10:31:06;7.47;;;5.97;;
146;SDS011;45999;48.808;9.182;2023-07-24T10:33:35;6.57;;;5.97;;
146;SDS011;45999;48.808;9.182;2023-07-24T10:36:10;8.20;;;6.40;;
146;SDS011;45999;48.808;9.182;2023-07-24T10:38:42;9.00;;;6.60;;
146;SDS011;45999;48.808;9.182;2023-07-24T10:41:10;7.83;;;7.03;;
146;SDS011;45999;48.808;9.182;2023-07-24T10:43:40;7.47;;;5.87;;
146;SDS011;45999;48.808;9.182;2023-07-24T10:46:07;7.10;;;6.27;;
146;SDS011;45999;48.808;9.182;2023-07-24T10:48:33;9.97;;;6.37;;
146;SDS011;45999;48.808;9.182;2023-07-24T10:51:05;9.63;;;7.03;;
146;SDS011;45999;48.808;9.182;2023-07-24T10:53:34;11.90;;;7.53;;
146;SDS011;45999;48.808;9.182;2023-07-24T10:56:01;12.53;;;7.90;;
146;SDS011;45999;48.808;9.182;2023-07-24T10:58:28;9.43;;;7.43;;
146;SDS011;45999;48.808;9.182;2023-07-24T11:00:55;9.40;;;8.00;;
146;SDS011;45999;48.808;9.182;2023-07-24T11:03:22;8.60;;;7.70;;
146;SDS011;45999;48.808;9.182;2023-07-24T11:05:49;9.77;;;7.70;;
146;SDS011;45999;48.808;9.182;2023-07-24T11:08:17;8.90;;;7.53;;
146;SDS011;45999;48.808;9.182;2023-07-24T11:13:13;10.80;;;7.70;;
146;SDS011;45999;48.808;9.182;2023-07-24T11:15:40;8.53;;;7.60;;
146;SDS011;45999;48.808;9.182;2023-07-24T11:18:06;9.83;;;7.83;;
146;SDS011;45999;48.808;9.182;2023-07-24T11:20:52;9.90;;;7.57;;
146;SDS011;45999;48.808;9.182;2023-07-24T11:23:20;10.40;;;8.43;;
146;SDS011;45999;48.808;9.182;2023-07-24T11:25:51;10.03;;;7.17;;
146;SDS011;45999;48.808;9.182;2023-07-24T11:28:18;10.77;;;7.40;;
146;SDS011;45999;48.808;9.182;2023-07-24T11:30:45;10.07;;;8.40;;
146;SDS011;45999;48.808;9.182;2023-07-24T11:33:12;8.27;;;7.47;;
146;SDS011;45999;48.808;9.182;2023-07-24T11:35:41;9.63;;;7.10;;
146;SDS011;45999;48.808;9.182;2023-07-24T11:38:08;10.70;;;8.07;;
146;SDS011;45999;48.808;9.182;2023-07-24T11:40:38;13.73;;;7.10;;
146;SDS011;45999;48.808;9.182;2023-07-24T11:43:23;8.83;;;7.93;;
146;SDS011;45999;48.808;9.182;2023-07-24T11:45:51;9.00;;;7.80;;
146;SDS011;45999;48.808;9.182;2023-07-24T11:48:19;7.30;;;6.60;;
146;SDS011;45999;48.808;9.182;2023-07-24T11:51:04;7.63;;;6.30;;
146;SDS011;45999;48.808;9.182;2023-07-24T11:53:31;8.33;;;7.53;;
146;SDS011;45999;48.808;9.182;2023-07-24T11:55:58;8.97;;;7.70;;
146;SDS011;45999;48.808;9.182;2023-07-24T11:58:26;7.50;;;6.63;;
146;SDS011;45999;48.808;9.182;2023-07-24T12:00:53;8.50;;;7.13;;
146;SDS011;45999;48.808;9.182;2023-07-24T12:03:21;7.30;;;6.60;;
146;SDS011;45999;48.808;9.182;2023-07-24T12:05:48;8.90;;;7.07;;
146;SDS011;45999;48.808;9.182;2023-07-24T12:08:15;8.03;;;7.13;;
146;SDS011;45999;48.808;9.182;2023-07-24T12:10:42;9.30;;;7.20;;
146;SDS011;45999;48.808;9.182;2023-07-24T12:13:09;10.37;;;7.33;;
146;SDS011;45999;48.808;9.182;2023-07-24T12:15:36;7.30;;;6.47;;
146;SDS011;45999;48.808;9.182;2023-07-24T12:18:03;7.57;;;6.83;;
146;SDS011;45999;48.808;9.182;2023-07-24T12:20:30;7.90;;;6.57;;
146;SDS011;45999;48.808;9.182;2023-07-24T12:22:57;7.43;;;6.63;;
146;SDS011;45999;48.808;9.182;2023-07-24T12:25:23;6.73;;;6.13;;
146;SDS011;45999;48.808;9.182;2023-07-24T12:27:50;7.93;;;6.90;;
146;SDS011;45999;48.808;9.182;2023-07-24T12:30:16;8.73;;;6.77;;
146;SDS011;45999;48.808;9.182;2023-07-24T12:32:43;7.50;;;6.77;;
146;SDS011;45999;48.808;9.182;2023-07-24T12:35:10;8.33;;;6.97;;
146;SDS011;45999;48.808;9.182;2023-07-24T12:37:36;7.90;;;7.20;;
146;SDS011;45999;48.808;9.182;2023-07-24T12:40:04;7.30;;;6.60;;
146;SDS011;45999;48.808;9.182;2023-07-24T12:42:31;9.60;;;7.30;;
146;SDS011;45999;48.808;9.182;2023-07-24T12:44:57;8.00;;;6.97;;
146;SDS011;45999;48.808;9.182;2023-07-24T12:47:24;8.37;;;6.90;;
146;SDS011;45999;48.808;9.182;2023-07-24T12:49:50;8.50;;;7.23;;
146;SDS011;45999;48.808;9.182;2023-07-24T12:52:17;7.70;;;7.00;;
146;SDS011;45999;48.808;9.182;2023-07-24T12:54:44;7.17;;;5.47;;
146;SDS011;45999;48.808;9.182;2023-07-24T12:57:10;7.00;;;6.30;;
146;SDS011;45999;48.808;9.182;2023-07-24T12:59:36;6.97;;;6.27;;
146;SDS011;45999;48.808;9.182;2023-07-24T13:02:03;7.27;;;6.60;;
146;SDS011;45999;48.808;9.182;2023-07-24T13:04:29;8.00;;;6.60;;
146;SDS011;45999;48.808;9.182;2023-07-24T13:06:56;7.43;;;6.63;;
146;SDS011;45999;48.808;9.182;2023-07-24T13:09:24;6.83;;;6.13;;
146;SDS011;45999;48.808;9.182;2023-07-24T13:11:50;6.83;;;6.13;;
146;SDS011;45999;48.808;9.182;2023-07-24T13:14:19;7.20;;;6.50;;
146;SDS011;45999;48.808;9.182;2023-07-24T13:16:46;7.30;;;6.50;;
146;SDS011;45999;48.808;9.182;2023-07-24T13:19:12;8.33;;;7.57;;
146;SDS011;45999;48.808;9.182;2023-07-24T13:21:39;7.90;;;6.63;;
146;SDS011;45999;48.808;9.182;2023-07-24T13:24:06;7.73;;;6.70;;
146;SDS011;45999;48.808;9.182;2023-07-24T13:26:33;7.20;;;6.50;;
146;SDS011;45999;48.808;9.182;2023-07-24T13:28:59;8.70;;;6.77;;
146;SDS011;45999;48.808;9.182;2023-07-24T13:31:26;7.43;;;6.43;;
146;SDS011;45999;48.808;9.182;2023-07-24T13:33:53;6.90;;;6.30;;
146;SDS011;45999;48.808;9.182;2023-07-24T13:36:19;7.93;;;6.77;;
146;SDS011;45999;48.808;9.182;2023-07-24T13:38:46;7.50;;;6.77;;
146;SDS011;45999;48.808;9.182;2023-07-24T13:41:13;10.25;;;7.57;;
146;SDS011;45999;48.808;9.182;2023-07-24T13:43:39;10.00;;;6.78;;
146;SDS011;45999;48.808;9.182;2023-07-24T13:46:05;8.30;;;7.32;;
146;SDS011;45999;48.808;9.182;2023-07-24T13:48:33;8.25;;;6.75;;
146;SDS011;45999;48.808;9.182;2023-07-24T13:50:59;6.75;;;6.05;;
146;SDS011;45999;48.808;9.182;2023-07-24T13:53:26;7.35;;;5.90;;
146;SDS011;45999;48.808;9.182;2023-07-24T13:55:53;6.57;;;5.97;;
146;SDS011;45999;48.808;9.182;2023-07-24T13:58:19;5.22;;;4.72;;
146;SDS011;45999;48.808;9.182;2023-07-24T14:00:46;5.97;;;5.38;;
146;SDS011;45999;48.808;9.182;2023-07-24T14:03:12;4.85;;;4.45;;
146;SDS011;45999;48.808;9.182;2023-07-24T14:05:38;5.72;;;5.00;;
146;SDS011;45999;48.808;9.182;2023-07-24T14:08:06;8.05;;;4.68;;
146;SDS011;45999;48.808;9.182;2023-07-24T14:10:33;5.45;;;4.95;;
146;SDS011;45999;48.808;9.182;2023-07-24T14:12:59;5.68;;;4.50;;
146;SDS011;45999;48.808;9.182;2023-07-24T14:15:26;4.90;;;4.40;;
146;SDS011;45999;48.808;9.182;2023-07-24T14:17:52;5.65;;;5.05;;
146;SDS011;45999;48.808;9.182;2023-07-24T14:20:19;5.20;;;4.20;;
146;SDS011;45999;48.808;9.182;2023-07-24T14:22:45;4.93;;;4.53;;
146;SDS011;45999;48.808;9.182;2023-07-24T14:25:12;4.80;;;4.38;;
146;SDS011;45999;48.808;9.182;2023-07-24T14:27:38;4.95;;;4.30;;
146;SDS011;45999;48.808;9.182;2023-07-24T14:30:05;4.60;;;4.20;;
146;SDS011;45999;48.808;9.182;2023-07-24T14:32:32;4.35;;;4.05;;
146;SDS011;45999;48.808;9.182;2023-07-24T14:34:58;4.68;;;4.20;;
146;SDS011;45999;48.808;9.182;2023-07-24T14:37:24;5.15;;;4.10;;
146;SDS011;45999;48.808;9.182;2023-07-24T14:39:51;4.78;;;4.38;;
146;SDS011;45999;48.808;9.182;2023-07-24T14:42:17;5.10;;;4.35;;
146;SDS011;45999;48.808;9.182;2023-07-24T14:44:44;4.47;;;4.07;;
146;SDS011;45999;48.808;9.182;2023-07-24T14:47:10;5.07;;;4.45;;
146;SDS011;45999;48.808;9.182;2023-07-24T14:49:38;4.15;;;3.65;;
146;SDS011;45999;48.808;9.182;2023-07-24T14:52:04;4.60;;;4.20;;
146;SDS011;45999;48.808;9.182;2023-07-24T14:54:31;5.25;;;4.75;;
146;SDS011;45999;48.808;9.182;2023-07-24T14:56:57;4.85;;;4.32;;
146;SDS011;45999;48.808;9.182;2023-07-24T14:59:24;4.63;;;4.18;;
146;SDS011;45999;48.808;9.182;2023-07-24T15:01:50;4.22;;;3.83;;
146;SDS011;45999;48.808;9.182;2023-07-24T15:04:17;4.95;;;4.40;;
146;SDS011;45999;48.808;9.182;2023-07-24T15:06:43;4.82;;;4.22;;
146;SDS011;45999;48.808;9.182;2023-07-24T15:09:10;4.57;;;4.18;;
146;SDS011;45999;48.808;9.182;2023-07-24T15:11:36;4.93;;;4.13;;
146;SDS011;45999;48.808;9.182;2023-07-24T15:14:02;6.10;;;4.57;;
146;SDS011;45999;48.808;9.182;2023-07-24T15:16:29;4.53;;;4.13;;